New Chitose Airport
RJCC : now visible

Airfield :











YOU CAN JOIN US ON...

 
LOGIN :

Register | Disclaimer

   EN    FR    IT 

 









Legend :    VFR   Marginal VFR   IFR   Intensive IFR   Very Intensive IFR
Visi :
Ceiling :
>= 8 km
>= 3000ft
5 to 8 km
1000 to 3000 ft
1500m to 5 km
500 to 1000 ft
800 to 1500m
200 to 500 ft
< 800m
< 200 ft
Symbols :   Thunderstorms  Fog  Heavy snow  Heavy precipitations  Wind > 20 kt






- Airport Elevation : 82 ft
- IATA code : CTS


RJCC - New Chitose

CURRENT METAR :
  • 131430Z 01005KT 9999 FEW025 SCT/// 17/15 Q1013 RMK 1CU025 A2993

EXPIRED METARs :
  • 131400Z 01006KT 9999 FEW025 BKN/// 17/16 Q1013 RMK 1CU025 A2992
  • 131330Z 01004KT 9999 FEW025 BKN/// 18/16 Q1013
  • 131300Z 01006KT 9999 FEW025 BKN/// 18/16 Q1013 RMK 1CU025 A2992
  • 131230Z 01007KT 9999 FEW025 BKN/// 18/16 Q1013
  • 131200Z 36007KT 9999 FEW025 SCT/// 18/16 Q1012 RMK 1CU025 A2990
  • 131130Z 02009KT 9999 FEW025 SCT/// 19/16 Q1012
  • 131100Z 01008KT 9999 FEW025 SCT/// 19/16 Q1012 RMK 1CU025 A2989
  • 131030Z 36009KT 9999 FEW025 SCT/// 20/16 Q1011 RMK 1CU025 A2987
  • 131000Z 01008KT 9999 FEW025 SCT/// 20/16 Q1011 RMK 1CU025 A2986

TAF TAF RJCC
Valid from the 13 at 12:00 until the 14 at 18:00 UTC


131105Z 1312/1418 35005KT 9999 FEW020
BECMG 1322/1400 17013KT
TEMPO 1412/1418 FEW004 BKN006
RJJJ FIR / Asia



MET'MAP, your aeronautical weather chart ! - Copyright ORBIFLY December 2007 - Disclaimer

ORBIFLY MET'MAP TEAM :

Programming & Development : Alexandra Zaïnal
Original concept : Baudouin d'Aumeries
Technical & hardware support : Manuel Goepfert
Assistance : Marc-Olivier Méhu




SOURCES & CREDITS :

   NOAA       Earth
Advisory